Terminal Aerodrome Forecast
Issued by NWS Cleveland, OH

Home | Current Version | Previous Version | Text Only | Print | Product List | Glossary On
Versions: 1 2 3 4 5 6 7 8 9 10 11 12 13 14 15 16
000
FTUS41 KCLE 032335
TAFERI
TAF
KERI 032335Z 0400/0424 03008KT P6SM BKN200
     FM040200 06004KT P6SM SCT080 BKN150
     FM040900 34004KT P6SM BKN200
     FM041700 32006KT P6SM SCT200=

USA.gov is the U.S. government's official web portal to all federal, state and local government web resources and services.